createdAt,value
2019-02-23T00:01:23.395Z,10.82
2019-02-23T00:03:54.248Z,5.45
2019-02-23T00:06:30.065Z,9.60
2019-02-23T00:09:02.537Z,8.38
2019-02-23T00:11:33.349Z,8.83
2019-02-23T00:14:05.905Z,8.10
2019-02-23T00:16:36.621Z,7.45
2019-02-23T00:19:08.134Z,9.90
2019-02-23T00:21:38.869Z,12.25
2019-02-23T00:24:09.622Z,9.10
2019-02-23T00:26:42.513Z,9.08
2019-02-23T00:29:14.369Z,14.07
2019-02-23T00:31:45.185Z,10.00
2019-02-23T00:34:16.027Z,10.85
2019-02-23T00:36:47.842Z,12.40
2019-02-23T00:39:20.297Z,10.98
2019-02-23T00:41:51.502Z,9.53
2019-02-23T00:44:23.805Z,13.43
2019-02-23T00:46:54.592Z,8.58
2019-02-23T00:49:35.845Z,16.12
2019-02-23T00:51:58.851Z,21.55
2019-02-23T00:54:30.877Z,11.00
2019-02-23T00:57:01.825Z,9.38
2019-02-23T00:59:32.548Z,11.57
2019-02-23T01:02:03.351Z,11.95
2019-02-23T01:04:34.106Z,10.55
2019-02-23T01:07:04.861Z,13.10
2019-02-23T01:09:35.585Z,12.65
2019-02-23T01:12:10.823Z,12.10
2019-02-23T01:14:41.572Z,12.43
2019-02-23T01:17:12.310Z,13.30
2019-02-23T01:19:47.838Z,9.83
2019-02-23T01:22:15.525Z,14.13
2019-02-23T01:24:46.543Z,11.63
2019-02-23T01:27:17.317Z,11.28
2019-02-23T01:29:48.015Z,16.35
2019-02-23T01:32:18.803Z,14.80
2019-02-23T01:34:49.578Z,14.00
2019-02-23T01:37:20.311Z,11.20
2019-02-23T01:39:51.042Z,21.55
2019-02-23T01:42:23.307Z,10.90
2019-02-23T01:44:55.086Z,9.30
2019-02-23T01:47:25.801Z,12.23
2019-02-23T01:49:59.152Z,11.88
2019-02-23T01:52:29.022Z,12.68
2019-02-23T01:54:59.747Z,12.00
2019-02-23T01:57:30.486Z,14.45
2019-02-23T02:00:01.155Z,14.30
2019-02-23T02:02:31.917Z,12.58
2019-02-23T02:05:02.663Z,14.70
2019-02-23T02:07:33.423Z,15.53
2019-02-23T02:10:07.051Z,9.68
2019-02-23T02:12:37.817Z,43.52
2019-02-23T02:15:11.403Z,11.70
2019-02-23T02:17:42.137Z,11.55
2019-02-23T02:20:12.926Z,13.62
2019-02-23T02:22:43.654Z,10.53
2019-02-23T02:25:14.384Z,11.05
2019-02-23T02:27:45.158Z,13.95
2019-02-23T02:30:15.866Z,8.13
2019-02-23T02:32:46.589Z,11.08
2019-02-23T02:35:17.342Z,8.40
2019-02-23T02:37:48.063Z,7.67
2019-02-23T02:40:18.813Z,9.33
2019-02-23T02:42:49.542Z,11.97
2019-02-23T02:45:20.303Z,13.43
2019-02-23T02:47:51.091Z,12.43
2019-02-23T02:50:24.559Z,11.53
2019-02-23T02:52:54.219Z,8.45
2019-02-23T02:55:24.992Z,12.00
2019-02-23T02:57:55.720Z,14.05
2019-02-23T03:00:26.444Z,13.70
2019-02-23T03:02:57.177Z,11.53
2019-02-23T03:05:28.004Z,15.75
2019-02-23T03:07:58.731Z,13.68
2019-02-23T03:10:30.474Z,14.50
2019-02-23T03:13:01.255Z,10.75
2019-02-23T03:15:32.876Z,16.70
2019-02-23T03:18:03.600Z,12.85
2019-02-23T03:20:36.885Z,9.53
2019-02-23T03:23:06.987Z,12.18
2019-02-23T03:25:37.751Z,13.50
2019-02-23T03:28:08.514Z,10.48
2019-02-23T03:30:39.218Z,12.43
2019-02-23T03:33:09.963Z,10.55
2019-02-23T03:35:40.685Z,13.32
2019-02-23T03:38:11.411Z,17.20
2019-02-23T03:40:42.179Z,12.88
2019-02-23T03:43:13.005Z,15.00
2019-02-23T03:45:48.133Z,10.45
2019-02-23T03:48:22.087Z,12.00
2019-02-23T03:50:52.879Z,10.40
2019-02-23T03:53:23.606Z,11.30
2019-02-23T03:55:54.394Z,13.43
2019-02-23T03:58:25.201Z,14.43
2019-02-23T04:00:56.010Z,10.82
2019-02-23T04:03:26.785Z,15.32
2019-02-23T04:05:57.587Z,16.02
2019-02-23T04:08:28.324Z,9.35
2019-02-23T04:10:59.060Z,10.85
2019-02-23T04:13:29.868Z,10.48
2019-02-23T04:16:00.597Z,12.25
2019-02-23T04:18:31.451Z,13.43
2019-02-23T04:21:02.257Z,10.82
2019-02-23T04:23:32.989Z,19.10
2019-02-23T04:26:03.728Z,15.08
2019-02-23T04:28:34.578Z,13.25
2019-02-23T04:31:05.338Z,9.05
2019-02-23T04:33:36.049Z,14.00
2019-02-23T04:36:06.809Z,9.98
2019-02-23T04:38:37.545Z,9.63
2019-02-23T04:41:08.282Z,12.37
2019-02-23T04:43:39.056Z,11.00
2019-02-23T04:46:09.904Z,18.27
2019-02-23T04:48:40.649Z,9.73
2019-02-23T04:51:14.704Z,15.88
2019-02-23T04:53:45.876Z,14.10
2019-02-23T04:56:16.295Z,15.90
2019-02-23T04:58:47.016Z,21.80
2019-02-23T05:01:17.739Z,16.15
2019-02-23T05:03:48.477Z,12.93
2019-02-23T05:06:20.227Z,19.12
2019-02-23T05:08:50.995Z,13.35
2019-02-23T05:11:21.765Z,27.65
2019-02-23T05:13:52.505Z,19.67
2019-02-23T05:16:23.278Z,8.88
2019-02-23T05:18:54.037Z,14.15
2019-02-23T05:21:26.773Z,10.35
2019-02-23T05:23:57.234Z,12.85
2019-02-23T05:26:27.977Z,9.15
2019-02-23T05:28:58.763Z,11.38
2019-02-23T05:31:30.593Z,11.55
2019-02-23T05:34:01.303Z,13.05
2019-02-23T05:36:33.156Z,10.88
2019-02-23T05:39:04.669Z,9.78
2019-02-23T05:41:35.624Z,12.15
2019-02-23T05:44:06.669Z,9.28
2019-02-23T05:46:39.160Z,13.10
2019-02-23T05:49:10.686Z,13.50
2019-02-23T05:51:42.563Z,19.12
2019-02-23T05:54:13.304Z,19.57
2019-02-23T05:56:44.131Z,14.00
2019-02-23T05:59:14.897Z,13.35
2019-02-23T06:01:45.661Z,13.08
2019-02-23T06:04:16.990Z,15.03
2019-02-23T06:06:48.719Z,15.70
2019-02-23T06:09:21.161Z,17.00
2019-02-23T06:11:53.075Z,15.80
2019-02-23T06:14:23.809Z,12.43
2019-02-23T06:16:56.061Z,13.83
2019-02-23T06:19:27.246Z,17.70
2019-02-23T06:21:57.745Z,13.13
2019-02-23T06:24:28.228Z,16.20
2019-02-23T06:26:58.731Z,14.13
2019-02-23T06:29:29.198Z,19.20
2019-02-23T06:31:59.867Z,9.55
2019-02-23T06:34:30.393Z,16.57
2019-02-23T06:37:00.975Z,11.97
2019-02-23T06:39:32.462Z,16.43
2019-02-23T06:42:04.470Z,8.27
2019-02-23T06:44:34.885Z,21.43
2019-02-23T06:47:05.342Z,15.50
2019-02-23T06:49:35.811Z,13.23
2019-02-23T06:52:06.237Z,15.67
2019-02-23T06:54:44.679Z,12.10
2019-02-23T06:57:18.421Z,19.43
2019-02-23T06:59:48.961Z,21.87
2019-02-23T07:02:19.387Z,13.67
2019-02-23T07:04:51.217Z,15.43
2019-02-23T07:07:24.189Z,19.87
2019-02-23T07:09:55.887Z,21.73
2019-02-23T07:12:26.964Z,15.03
2019-02-23T07:15:02.074Z,9.87
2019-02-23T07:17:32.510Z,18.90
2019-02-23T07:20:03.492Z,16.37
2019-02-23T07:22:33.932Z,19.03
2019-02-23T07:25:06.761Z,15.57
2019-02-23T07:27:37.261Z,11.50
2019-02-23T07:30:10.862Z,14.20
2019-02-23T07:33:36.441Z,12.07
2019-02-23T07:35:40.939Z,14.43
2019-02-23T07:38:11.458Z,11.00
2019-02-23T07:40:42.987Z,13.67
2019-02-23T07:43:13.495Z,14.07
2019-02-23T07:45:43.971Z,10.70
2019-02-23T07:48:14.453Z,13.87
2019-02-23T07:50:46.457Z,15.27
2019-02-23T07:53:17.071Z,14.87
2019-02-23T07:55:47.472Z,15.07
2019-02-23T07:58:19.537Z,7.43
2019-02-23T08:00:49.996Z,13.67
2019-02-23T08:03:20.826Z,8.00
2019-02-23T08:05:51.269Z,13.23
2019-02-23T08:08:23.343Z,12.87
2019-02-23T08:10:53.780Z,19.30
2019-02-23T08:13:24.172Z,10.27
2019-02-23T08:15:54.616Z,12.30
2019-02-23T08:18:25.179Z,12.93
2019-02-23T08:20:57.164Z,16.60
2019-02-23T08:23:27.619Z,14.73
2019-02-23T08:25:58.142Z,20.27
2019-02-23T08:28:28.667Z,11.60
2019-02-23T08:30:59.226Z,15.73
2019-02-23T08:33:31.038Z,15.70
2019-02-23T08:36:01.488Z,12.30
2019-02-23T08:38:31.936Z,19.30
2019-02-23T08:41:02.371Z,14.27
2019-02-23T08:43:33.250Z,9.07
2019-02-23T08:46:03.887Z,16.03
2019-02-23T08:48:34.292Z,15.27
2019-02-23T08:51:04.783Z,12.33
2019-02-23T08:53:35.188Z,11.43
2019-02-23T08:56:05.619Z,12.00
2019-02-23T08:58:36.055Z,13.87
2019-02-23T09:01:06.537Z,20.77
2019-02-23T09:03:36.938Z,20.57
2019-02-23T09:06:07.889Z,24.23
2019-02-23T09:08:38.355Z,18.70
2019-02-23T09:11:09.134Z,12.00
2019-02-23T09:13:39.656Z,13.57
2019-02-23T09:16:11.879Z,14.77
2019-02-23T09:18:42.274Z,15.00
2019-02-23T09:21:15.379Z,10.57
2019-02-23T09:23:45.793Z,16.80
2019-02-23T09:26:16.404Z,15.27
2019-02-23T09:28:46.791Z,24.67
2019-02-23T09:31:17.272Z,19.47
2019-02-23T09:33:50.536Z,18.57
2019-02-23T09:36:20.942Z,13.93
2019-02-23T09:38:51.510Z,15.53
2019-02-23T09:41:21.983Z,19.57
2019-02-23T09:43:52.390Z,14.70
2019-02-23T09:46:22.790Z,11.77
2019-02-23T09:48:53.210Z,8.43
2019-02-23T09:51:23.877Z,15.33
2019-02-23T09:53:54.341Z,9.60
2019-02-23T09:56:24.825Z,8.23
2019-02-23T09:58:58.426Z,13.13
2019-02-23T10:01:28.852Z,12.63
2019-02-23T10:03:59.297Z,15.17
2019-02-23T10:06:29.794Z,16.70
2019-02-23T10:09:00.183Z,11.03
2019-02-23T10:11:30.600Z,13.10
2019-02-23T10:14:01.047Z,10.23
2019-02-23T10:16:31.454Z,20.30
2019-02-23T10:19:02.099Z,13.33
2019-02-23T10:21:34.598Z,12.93
2019-02-23T10:24:05.267Z,13.17
2019-02-23T10:26:35.804Z,17.00
2019-02-23T10:29:07.937Z,18.73
2019-02-23T10:31:38.491Z,15.63
2019-02-23T10:34:25.268Z,13.33
2019-02-23T10:36:54.109Z,9.50
2019-02-23T10:39:24.509Z,13.07
2019-02-23T10:41:54.942Z,12.30
2019-02-23T10:44:26.483Z,13.07
2019-02-23T10:46:57.898Z,14.50
2019-02-23T10:49:28.617Z,8.63
2019-02-23T10:51:59.038Z,13.87
2019-02-23T10:54:29.449Z,14.00
2019-02-23T10:56:59.906Z,12.60
2019-02-23T10:59:34.055Z,16.00
2019-02-23T11:02:04.513Z,12.00
2019-02-23T11:04:34.906Z,28.43
2019-02-23T11:07:08.037Z,12.03
2019-02-23T11:09:39.567Z,10.43
2019-02-23T11:12:10.017Z,16.53
2019-02-23T11:14:40.502Z,11.30
2019-02-23T11:17:10.892Z,11.30
2019-02-23T11:19:41.321Z,19.37
2019-02-23T11:22:11.732Z,17.43
2019-02-23T11:24:42.221Z,20.43
2019-02-23T11:27:12.806Z,13.67
2019-02-23T11:29:43.253Z,18.70
2019-02-23T11:32:14.154Z,15.83
2019-02-23T11:34:44.606Z,10.93
2019-02-23T11:37:15.033Z,16.03
2019-02-23T11:39:45.621Z,9.97
2019-02-23T11:42:18.601Z,14.87
2019-02-23T11:45:01.028Z,18.53
2019-02-23T11:47:41.954Z,15.13
2019-02-23T11:50:15.707Z,14.53
2019-02-23T11:52:50.672Z,14.87
2019-02-23T11:55:21.144Z,13.87
2019-02-23T11:57:51.622Z,14.93
2019-02-23T12:00:24.073Z,14.67
2019-02-23T12:02:55.442Z,15.67
2019-02-23T12:05:26.148Z,10.63
2019-02-23T12:07:56.601Z,19.93
2019-02-23T12:10:27.113Z,12.37
2019-02-23T12:12:57.579Z,12.00
2019-02-23T12:15:28.070Z,11.67
2019-02-23T12:17:58.588Z,18.80
2019-02-23T12:20:30.734Z,13.87
2019-02-23T12:23:04.382Z,25.17
2019-02-23T12:25:39.141Z,12.07
2019-02-23T12:28:10.678Z,14.53
2019-02-23T12:30:41.102Z,23.20
2019-02-23T12:33:11.601Z,11.93
2019-02-23T12:35:42.081Z,12.93
2019-02-23T12:38:12.534Z,12.43
2019-02-23T12:40:42.958Z,15.90
2019-02-23T12:43:13.447Z,14.40
2019-02-23T12:45:43.907Z,23.57
2019-02-23T12:48:14.432Z,16.03
2019-02-23T12:50:49.261Z,21.43
2019-02-23T12:53:19.759Z,11.40
2019-02-23T12:55:51.764Z,14.50
2019-02-23T12:58:22.336Z,13.93
2019-02-23T13:00:52.800Z,18.83
2019-02-23T13:03:23.302Z,14.10
2019-02-23T13:06:02.945Z,12.07
2019-02-23T13:08:55.785Z,12.47
2019-02-23T13:11:27.475Z,32.10
2019-02-23T13:14:03.528Z,19.90
2019-02-23T13:16:34.103Z,15.60
2019-02-23T13:19:28.580Z,13.00
2019-02-23T13:22:02.537Z,12.97
2019-02-23T13:24:44.287Z,17.47
2019-02-23T13:27:28.322Z,15.03
2019-02-23T13:30:17.119Z,18.57
2019-02-23T13:33:17.549Z,18.87
2019-02-23T13:36:09.105Z,18.37
2019-02-23T13:39:08.437Z,18.73
2019-02-23T13:41:49.255Z,26.17
2019-02-23T13:44:39.964Z,11.43
2019-02-23T13:47:19.370Z,20.07
2019-02-23T13:50:04.978Z,13.87
2019-02-23T13:53:05.139Z,8.27
2019-02-23T13:56:00.743Z,17.80
2019-02-23T13:58:43.654Z,15.17
2019-02-23T14:01:47.551Z,13.87
2019-02-23T14:04:28.471Z,12.37
2019-02-23T14:07:18.231Z,11.00
2019-02-23T14:10:00.689Z,12.33
2019-02-23T14:12:41.738Z,27.83
2019-02-23T14:15:42.959Z,16.97
2019-02-23T14:18:28.463Z,12.73
2019-02-23T14:21:07.928Z,13.03
2019-02-23T14:24:14.473Z,18.83
2019-02-23T14:27:11.850Z,18.23
2019-02-23T14:30:12.066Z,12.57
2019-02-23T14:32:54.505Z,12.40
2019-02-23T14:35:29.142Z,17.17
2019-02-23T14:38:19.191Z,12.43
2019-02-23T14:41:26.871Z,22.50
2019-02-23T14:44:20.218Z,7.67
2019-02-23T14:47:05.617Z,14.30
2019-02-23T14:49:59.213Z,8.87
2019-02-23T14:52:59.985Z,10.93
2019-02-23T14:55:51.551Z,21.13
2019-02-23T14:58:49.718Z,13.80
2019-02-23T15:01:51.196Z,11.03
2019-02-23T15:04:32.702Z,18.40
2019-02-23T15:07:32.288Z,19.00
2019-02-23T15:10:39.285Z,15.30
2019-02-23T15:13:45.110Z,20.33
2019-02-23T15:16:27.724Z,19.03
2019-02-23T15:19:03.991Z,10.33
2019-02-23T15:21:44.367Z,12.67
2019-02-23T15:24:18.109Z,10.60
2019-02-23T15:27:22.777Z,11.20
2019-02-23T15:30:06.571Z,17.97
2019-02-23T15:33:09.706Z,12.87
2019-02-23T15:36:10.314Z,22.90
2019-02-23T15:38:53.163Z,18.27
2019-02-23T15:41:32.832Z,14.03
2019-02-23T15:44:37.618Z,16.13
2019-02-23T15:47:43.102Z,13.60
2019-02-23T15:50:19.036Z,14.50
2019-02-23T15:52:49.712Z,13.40
2019-02-23T15:55:26.206Z,9.53
2019-02-23T15:57:59.168Z,10.10
2019-02-23T16:00:35.038Z,9.20
2019-02-23T16:03:08.045Z,12.40
2019-02-23T16:05:42.239Z,11.53
2019-02-23T16:08:13.028Z,10.80
2019-02-23T16:10:43.713Z,7.43
2019-02-23T16:13:17.292Z,9.73
2019-02-23T16:15:47.890Z,18.07
2019-02-23T16:18:18.522Z,13.03
2019-02-23T16:20:50.554Z,13.60
2019-02-23T16:23:34.629Z,22.50
2019-02-23T16:26:00.857Z,11.60
2019-02-23T16:28:31.724Z,11.53
2019-02-23T16:31:02.368Z,8.63
2019-02-23T16:33:37.503Z,17.60
2019-02-23T16:36:08.923Z,12.53
2019-02-23T16:38:46.192Z,17.43
2019-02-23T16:41:20.879Z,16.57
2019-02-23T16:43:53.662Z,10.83
2019-02-23T16:46:26.511Z,10.50
2019-02-23T16:48:56.937Z,18.70
2019-02-23T16:51:27.441Z,15.47
2019-02-23T16:53:57.913Z,10.83
2019-02-23T16:56:28.340Z,16.10
2019-02-23T16:58:58.950Z,10.40
2019-02-23T17:01:29.575Z,11.00
2019-02-23T17:03:59.988Z,10.93
2019-02-23T17:06:32.875Z,13.37
2019-02-23T17:09:06.367Z,11.03
2019-02-23T17:11:36.825Z,21.80
2019-02-23T17:14:08.276Z,22.70
2019-02-23T17:16:41.501Z,21.17
2019-02-23T17:19:12.164Z,15.03
2019-02-23T17:21:42.665Z,19.77
2019-02-23T17:24:17.536Z,17.13
2019-02-23T17:26:49.680Z,19.33
2019-02-23T17:29:21.912Z,15.73
2019-02-23T17:31:52.366Z,23.33
2019-02-23T17:34:22.894Z,23.67
2019-02-23T17:36:54.894Z,23.17
2019-02-23T17:39:27.698Z,18.53
2019-02-23T17:42:04.494Z,14.83
2019-02-23T17:44:35.076Z,15.67
2019-02-23T17:47:07.525Z,14.33
2019-02-23T17:49:37.990Z,16.77
2019-02-23T17:52:11.338Z,12.03
2019-02-23T17:54:41.908Z,23.87
2019-02-23T17:57:12.416Z,17.97
2019-02-23T17:59:44.310Z,15.23
2019-02-23T18:02:14.779Z,19.60
2019-02-23T18:04:45.276Z,19.13
2019-02-23T18:07:15.787Z,16.70
2019-02-23T18:09:46.271Z,22.73
2019-02-23T18:12:18.917Z,18.20
2019-02-23T18:14:50.921Z,23.80
2019-02-23T18:17:21.477Z,17.33
2019-02-23T18:19:51.924Z,21.90
2019-02-23T18:22:22.373Z,21.03
2019-02-23T18:24:52.834Z,16.30
2019-02-23T18:27:23.247Z,18.40
2019-02-23T18:29:53.688Z,23.97
2019-02-23T18:32:27.293Z,20.67
2019-02-23T18:34:57.851Z,26.37
2019-02-23T18:37:29.011Z,28.03
2019-02-23T18:40:00.455Z,29.33
2019-02-23T18:42:31.511Z,23.30
2019-02-23T18:45:02.096Z,27.57
2019-02-23T18:47:37.986Z,22.30
2019-02-23T18:50:12.651Z,30.80
2019-02-23T18:52:43.065Z,32.80
2019-02-23T18:55:13.536Z,45.73
2019-02-23T18:57:44.340Z,44.37
2019-02-23T19:00:24.177Z,38.80
2019-02-23T19:02:49.302Z,42.83
2019-02-23T19:05:22.501Z,38.53
2019-02-23T19:07:52.972Z,39.40
2019-02-23T19:10:24.251Z,42.53
2019-02-23T19:12:55.556Z,37.43
2019-02-23T19:15:26.437Z,50.50
2019-02-23T19:17:58.583Z,38.57
2019-02-23T19:20:31.747Z,40.60
2019-02-23T19:23:06.410Z,44.83
2019-02-23T19:25:37.060Z,47.20
2019-02-23T19:28:10.199Z,40.40
2019-02-23T19:30:41.494Z,38.10
2019-02-23T19:33:12.121Z,43.57
2019-02-23T19:35:51.242Z,46.90
2019-02-23T19:38:26.119Z,32.87
2019-02-23T19:40:59.664Z,39.87
2019-02-23T19:43:41.159Z,38.13
2019-02-23T19:49:37.400Z,30.60
2019-02-23T19:52:15.405Z,39.30
2019-02-23T19:54:47.453Z,34.95
2019-02-23T19:57:18.327Z,41.45
2019-02-23T19:59:48.899Z,27.73
2019-02-23T20:02:22.244Z,27.02
2019-02-23T20:04:53.549Z,25.90
2019-02-23T20:07:24.446Z,30.40
2019-02-23T20:09:59.837Z,17.00
2019-02-23T20:12:32.324Z,26.82
2019-02-23T20:15:03.499Z,18.55
2019-02-23T20:17:35.034Z,18.70
2019-02-23T20:20:10.436Z,14.28
2019-02-23T20:22:41.339Z,20.17
2019-02-23T20:25:12.057Z,15.60
2019-02-23T20:27:44.499Z,15.48
2019-02-23T20:30:17.023Z,28.40
2019-02-23T20:32:47.922Z,19.87
2019-02-23T20:35:21.958Z,21.25
2019-02-23T20:37:52.793Z,23.05
2019-02-23T20:40:25.210Z,18.07
2019-02-23T20:42:57.149Z,21.95
2019-02-23T20:45:27.966Z,16.77
2019-02-23T20:47:58.561Z,17.13
2019-02-23T20:50:37.460Z,25.65
2019-02-23T20:53:12.862Z,17.90
2019-02-23T20:55:45.246Z,15.63
2019-02-23T20:58:16.160Z,21.07
2019-02-23T21:00:53.242Z,17.87
2019-02-23T21:03:25.661Z,18.62
2019-02-23T21:06:11.630Z,20.45
2019-02-23T21:08:43.200Z,25.88
2019-02-23T21:11:14.415Z,21.60
2019-02-23T21:13:45.343Z,25.37
2019-02-23T21:16:17.937Z,20.88
2019-02-23T21:18:50.437Z,22.40
2019-02-23T21:21:21.367Z,18.75
2019-02-23T21:23:52.521Z,20.10
2019-02-23T21:26:23.453Z,20.72
2019-02-23T21:28:57.995Z,29.27
2019-02-23T21:31:36.907Z,16.27
2019-02-23T21:34:09.120Z,19.55
2019-02-23T21:36:41.894Z,18.57
2019-02-23T21:39:14.974Z,21.97
2019-02-23T21:41:50.106Z,23.92
2019-02-23T21:44:21.668Z,28.10
2019-02-23T21:46:53.603Z,28.17
2019-02-23T21:49:24.520Z,18.82
2019-02-23T21:51:55.728Z,17.10
2019-02-23T21:54:27.645Z,23.52
2019-02-23T21:56:59.656Z,19.55
2019-02-23T21:59:30.597Z,23.70
2019-02-23T22:02:01.971Z,21.48
2019-02-23T22:04:33.009Z,19.32
2019-02-23T22:07:09.507Z,23.50
2019-02-23T22:09:40.553Z,30.35
2019-02-23T22:12:11.639Z,19.17
2019-02-23T22:14:43.682Z,21.87
2019-02-23T22:17:14.673Z,14.95
2019-02-23T22:19:45.434Z,14.83
2019-02-23T22:22:16.359Z,20.27
2019-02-23T22:24:49.543Z,23.77
2019-02-23T22:27:20.324Z,16.70
2019-02-23T22:29:51.132Z,21.85
2019-02-23T22:32:21.896Z,14.50
2019-02-23T22:34:54.060Z,20.05
2019-02-23T22:37:24.916Z,16.93
2019-02-23T22:39:57.961Z,12.82
2019-02-23T22:42:30.940Z,18.48
2019-02-23T22:45:01.776Z,14.53
2019-02-23T22:47:35.494Z,12.40
2019-02-23T22:50:08.695Z,12.65
2019-02-23T22:52:39.573Z,19.07
2019-02-23T22:55:10.436Z,20.75
2019-02-23T22:57:42.210Z,16.80
2019-02-23T23:00:15.295Z,18.20
2019-02-23T23:02:46.056Z,14.03
2019-02-23T23:05:16.825Z,19.27
2019-02-23T23:07:47.588Z,19.82
2019-02-23T23:10:18.316Z,17.70
2019-02-23T23:12:49.120Z,26.62
2019-02-23T23:15:21.357Z,17.15
2019-02-23T23:17:53.698Z,19.48
2019-02-23T23:20:25.029Z,18.07
2019-02-23T23:22:55.735Z,17.67
2019-02-23T23:25:26.588Z,22.50
2019-02-23T23:27:58.516Z,25.23
2019-02-23T23:30:30.832Z,16.85
2019-02-23T23:33:01.611Z,21.50
2019-02-23T23:35:34.117Z,18.52
2019-02-23T23:38:07.359Z,20.25
2019-02-23T23:40:39.884Z,17.92
2019-02-23T23:43:10.615Z,17.60
2019-02-23T23:45:41.378Z,20.17
2019-02-23T23:48:12.290Z,18.57
2019-02-23T23:50:43.226Z,15.98
2019-02-23T23:53:14.360Z,12.58
2019-02-23T23:55:45.140Z,19.87
2019-02-23T23:58:15.916Z,20.77
